sensor_id;sensor_type;location;lat;lon;timestamp;temperature;humidity
51029;DHT22;37054;52.054;8.600;2023-09-19T00:00:17;19.70;70.90
51029;DHT22;37054;52.054;8.600;2023-09-19T00:02:45;19.70;70.90
51029;DHT22;37054;52.054;8.600;2023-09-19T00:05:12;19.70;70.90
51029;DHT22;37054;52.054;8.600;2023-09-19T00:07:38;19.60;70.90
51029;DHT22;37054;52.054;8.600;2023-09-19T00:10:03;19.60;70.90
51029;DHT22;37054;52.054;8.600;2023-09-19T00:12:32;19.60;70.50
51029;DHT22;37054;52.054;8.600;2023-09-19T00:14:57;19.50;70.70
51029;DHT22;37054;52.054;8.600;2023-09-19T00:17:23;19.50;70.70
51029;DHT22;37054;52.054;8.600;2023-09-19T00:19:49;19.50;70.80
51029;DHT22;37054;52.054;8.600;2023-09-19T00:22:18;19.50;70.80
51029;DHT22;37054;52.054;8.600;2023-09-19T00:24:44;19.50;70.90
51029;DHT22;37054;52.054;8.600;2023-09-19T00:27:09;19.50;70.90
51029;DHT22;37054;52.054;8.600;2023-09-19T00:29:35;19.50;71.00
51029;DHT22;37054;52.054;8.600;2023-09-19T00:32:00;19.50;71.20
51029;DHT22;37054;52.054;8.600;2023-09-19T00:34:28;19.60;71.40
51029;DHT22;37054;52.054;8.600;2023-09-19T00:36:55;19.70;71.60
51029;DHT22;37054;52.054;8.600;2023-09-19T00:39:20;19.70;71.40
51029;DHT22;37054;52.054;8.600;2023-09-19T00:41:47;19.70;71.50
51029;DHT22;37054;52.054;8.600;2023-09-19T00:44:12;19.70;71.50
51029;DHT22;37054;52.054;8.600;2023-09-19T00:46:38;19.80;71.40
51029;DHT22;37054;52.054;8.600;2023-09-19T00:49:04;19.80;71.20
51029;DHT22;37054;52.054;8.600;2023-09-19T00:51:30;19.80;71.00
51029;DHT22;37054;52.054;8.600;2023-09-19T00:53:56;19.80;71.00
51029;DHT22;37054;52.054;8.600;2023-09-19T00:56:23;19.80;70.90
51029;DHT22;37054;52.054;8.600;2023-09-19T00:58:49;19.80;70.80
51029;DHT22;37054;52.054;8.600;2023-09-19T01:01:14;19.70;70.70
51029;DHT22;37054;52.054;8.600;2023-09-19T01:03:40;19.70;70.80
51029;DHT22;37054;52.054;8.600;2023-09-19T01:06:06;19.70;71.20
51029;DHT22;37054;52.054;8.600;2023-09-19T01:08:33;19.80;71.60
51029;DHT22;37054;52.054;8.600;2023-09-19T01:11:10;19.80;71.70
51029;DHT22;37054;52.054;8.600;2023-09-19T01:13:46;19.90;71.60
51029;DHT22;37054;52.054;8.600;2023-09-19T01:16:23;19.90;71.30
51029;DHT22;37054;52.054;8.600;2023-09-19T01:18:57;19.90;71.20
51029;DHT22;37054;52.054;8.600;2023-09-19T01:21:29;19.80;70.90
51029;DHT22;37054;52.054;8.600;2023-09-19T01:28:54;19.80;71.00
51029;DHT22;37054;52.054;8.600;2023-09-19T01:31:28;19.80;71.40
51029;DHT22;37054;52.054;8.600;2023-09-19T01:33:56;19.80;71.60
51029;DHT22;37054;52.054;8.600;2023-09-19T01:36:22;20.00;71.70
51029;DHT22;37054;52.054;8.600;2023-09-19T01:38:50;20.00;71.70
51029;DHT22;37054;52.054;8.600;2023-09-19T01:41:16;20.10;71.70
51029;DHT22;37054;52.054;8.600;2023-09-19T01:43:42;20.10;71.50
51029;DHT22;37054;52.054;8.600;2023-09-19T01:46:09;20.10;71.40
51029;DHT22;37054;52.054;8.600;2023-09-19T01:48:42;20.10;71.30
51029;DHT22;37054;52.054;8.600;2023-09-19T01:51:14;20.10;71.30
51029;DHT22;37054;52.054;8.600;2023-09-19T01:56:28;20.10;71.20
51029;DHT22;37054;52.054;8.600;2023-09-19T01:58:56;20.00;71.10
51029;DHT22;37054;52.054;8.600;2023-09-19T02:01:24;20.00;70.90
51029;DHT22;37054;52.054;8.600;2023-09-19T02:03:51;19.90;70.70
51029;DHT22;37054;52.054;8.600;2023-09-19T02:06:18;19.80;70.60
51029;DHT22;37054;52.054;8.600;2023-09-19T02:08:45;19.80;70.60
51029;DHT22;37054;52.054;8.600;2023-09-19T02:11:13;19.80;70.60
51029;DHT22;37054;52.054;8.600;2023-09-19T02:13:39;19.80;70.70
51029;DHT22;37054;52.054;8.600;2023-09-19T02:16:06;19.70;70.80
51029;DHT22;37054;52.054;8.600;2023-09-19T02:18:32;19.70;71.00
51029;DHT22;37054;52.054;8.600;2023-09-19T02:21:00;19.70;71.00
51029;DHT22;37054;52.054;8.600;2023-09-19T02:23:26;19.80;71.10
51029;DHT22;37054;52.054;8.600;2023-09-19T02:25:54;19.80;71.20
51029;DHT22;37054;52.054;8.600;2023-09-19T02:28:20;19.80;71.20
51029;DHT22;37054;52.054;8.600;2023-09-19T02:30:49;19.90;71.30
51029;DHT22;37054;52.054;8.600;2023-09-19T02:33:15;19.90;71.30
51029;DHT22;37054;52.054;8.600;2023-09-19T02:35:42;19.90;71.10
51029;DHT22;37054;52.054;8.600;2023-09-19T02:38:08;19.90;71.00
51029;DHT22;37054;52.054;8.600;2023-09-19T02:40:33;19.90;71.00
51029;DHT22;37054;52.054;8.600;2023-09-19T02:43:01;19.80;70.90
51029;DHT22;37054;52.054;8.600;2023-09-19T02:45:27;19.80;70.90
51029;DHT22;37054;52.054;8.600;2023-09-19T02:47:53;19.80;70.90
51029;DHT22;37054;52.054;8.600;2023-09-19T02:50:18;19.80;71.00
51029;DHT22;37054;52.054;8.600;2023-09-19T02:52:44;19.80;71.10
51029;DHT22;37054;52.054;8.600;2023-09-19T02:55:12;19.80;71.10
51029;DHT22;37054;52.054;8.600;2023-09-19T02:57:48;19.80;71.10
51029;DHT22;37054;52.054;8.600;2023-09-19T03:00:14;19.80;71.10
51029;DHT22;37054;52.054;8.600;2023-09-19T03:02:40;19.80;70.90
51029;DHT22;37054;52.054;8.600;2023-09-19T03:05:07;19.80;71.00
51029;DHT22;37054;52.054;8.600;2023-09-19T03:07:32;19.80;71.00
51029;DHT22;37054;52.054;8.600;2023-09-19T03:09:58;19.80;71.10
51029;DHT22;37054;52.054;8.600;2023-09-19T03:12:25;19.80;71.10
51029;DHT22;37054;52.054;8.600;2023-09-19T03:14:50;19.70;71.00
51029;DHT22;37054;52.054;8.600;2023-09-19T03:17:17;19.80;70.90
51029;DHT22;37054;52.054;8.600;2023-09-19T03:19:42;19.70;70.60
51029;DHT22;37054;52.054;8.600;2023-09-19T03:22:08;19.70;70.50
51029;DHT22;37054;52.054;8.600;2023-09-19T03:24:33;19.70;70.40
51029;DHT22;37054;52.054;8.600;2023-09-19T03:27:01;19.60;70.70
51029;DHT22;37054;52.054;8.600;2023-09-19T03:29:26;19.70;70.80
51029;DHT22;37054;52.054;8.600;2023-09-19T03:31:52;19.60;70.80
51029;DHT22;37054;52.054;8.600;2023-09-19T03:34:19;19.60;70.70
51029;DHT22;37054;52.054;8.600;2023-09-19T03:36:45;19.60;70.60
51029;DHT22;37054;52.054;8.600;2023-09-19T03:39:10;19.50;70.30
51029;DHT22;37054;52.054;8.600;2023-09-19T03:41:36;19.50;70.40
51029;DHT22;37054;52.054;8.600;2023-09-19T03:44:01;19.50;70.60
51029;DHT22;37054;52.054;8.600;2023-09-19T03:46:27;19.50;70.60
51029;DHT22;37054;52.054;8.600;2023-09-19T03:48:53;19.50;70.60
51029;DHT22;37054;52.054;8.600;2023-09-19T03:51:20;19.50;70.60
51029;DHT22;37054;52.054;8.600;2023-09-19T03:53:45;19.50;70.30
51029;DHT22;37054;52.054;8.600;2023-09-19T03:56:11;19.40;70.50
51029;DHT22;37054;52.054;8.600;2023-09-19T03:58:37;19.40;70.30
51029;DHT22;37054;52.054;8.600;2023-09-19T04:01:05;19.40;70.30
51029;DHT22;37054;52.054;8.600;2023-09-19T04:03:34;19.40;70.50
51029;DHT22;37054;52.054;8.600;2023-09-19T04:06:11;19.40;70.40
51029;DHT22;37054;52.054;8.600;2023-09-19T04:08:37;19.40;70.20
51029;DHT22;37054;52.054;8.600;2023-09-19T04:11:02;19.30;69.90
51029;DHT22;37054;52.054;8.600;2023-09-19T04:13:28;19.20;69.70
51029;DHT22;37054;52.054;8.600;2023-09-19T04:15:53;19.20;69.60
51029;DHT22;37054;52.054;8.600;2023-09-19T04:18:19;19.10;69.40
51029;DHT22;37054;52.054;8.600;2023-09-19T04:20:51;18.90;69.40
51029;DHT22;37054;52.054;8.600;2023-09-19T04:23:17;18.80;69.30
51029;DHT22;37054;52.054;8.600;2023-09-19T04:25:45;18.70;69.20
51029;DHT22;37054;52.054;8.600;2023-09-19T04:28:10;18.60;69.20
51029;DHT22;37054;52.054;8.600;2023-09-19T04:30:36;18.60;69.30
51029;DHT22;37054;52.054;8.600;2023-09-19T04:33:02;18.50;69.30
51029;DHT22;37054;52.054;8.600;2023-09-19T04:35:28;18.40;69.50
51029;DHT22;37054;52.054;8.600;2023-09-19T04:37:57;18.40;69.70
51029;DHT22;37054;52.054;8.600;2023-09-19T04:40:22;18.40;69.70
51029;DHT22;37054;52.054;8.600;2023-09-19T04:42:53;18.30;69.50
51029;DHT22;37054;52.054;8.600;2023-09-19T04:45:21;18.30;69.40
51029;DHT22;37054;52.054;8.600;2023-09-19T04:47:46;18.20;69.20
51029;DHT22;37054;52.054;8.600;2023-09-19T04:50:12;18.10;69.20
51029;DHT22;37054;52.054;8.600;2023-09-19T04:52:39;18.10;69.30
51029;DHT22;37054;52.054;8.600;2023-09-19T04:55:08;18.10;69.50
51029;DHT22;37054;52.054;8.600;2023-09-19T04:57:34;18.00;69.50
51029;DHT22;37054;52.054;8.600;2023-09-19T04:59:59;18.00;69.60
51029;DHT22;37054;52.054;8.600;2023-09-19T05:02:25;18.00;69.80
51029;DHT22;37054;52.054;8.600;2023-09-19T05:04:51;18.00;70.00
51029;DHT22;37054;52.054;8.600;2023-09-19T05:07:16;18.10;70.30
51029;DHT22;37054;52.054;8.600;2023-09-19T05:09:42;18.20;70.50
51029;DHT22;37054;52.054;8.600;2023-09-19T05:12:07;18.20;70.30
51029;DHT22;37054;52.054;8.600;2023-09-19T05:14:36;18.20;69.90
51029;DHT22;37054;52.054;8.600;2023-09-19T05:17:01;18.20;69.40
51029;DHT22;37054;52.054;8.600;2023-09-19T05:19:29;18.10;69.10
51029;DHT22;37054;52.054;8.600;2023-09-19T05:21:54;18.00;69.00
51029;DHT22;37054;52.054;8.600;2023-09-19T05:24:20;18.00;69.00
51029;DHT22;37054;52.054;8.600;2023-09-19T05:26:48;17.90;69.00
51029;DHT22;37054;52.054;8.600;2023-09-19T05:29:14;17.90;68.90
51029;DHT22;37054;52.054;8.600;2023-09-19T05:31:39;17.80;68.80
51029;DHT22;37054;52.054;8.600;2023-09-19T05:34:06;17.80;68.80
51029;DHT22;37054;52.054;8.600;2023-09-19T05:36:31;17.80;69.00
51029;DHT22;37054;52.054;8.600;2023-09-19T05:38:58;17.70;68.80
51029;DHT22;37054;52.054;8.600;2023-09-19T05:41:24;17.70;69.20
51029;DHT22;37054;52.054;8.600;2023-09-19T05:43:50;17.80;69.90
51029;DHT22;37054;52.054;8.600;2023-09-19T05:46:15;18.00;70.30
51029;DHT22;37054;52.054;8.600;2023-09-19T05:48:42;18.30;70.60
51029;DHT22;37054;52.054;8.600;2023-09-19T05:51:09;18.60;70.60
51029;DHT22;37054;52.054;8.600;2023-09-19T05:53:35;18.80;70.80
51029;DHT22;37054;52.054;8.600;2023-09-19T05:56:00;19.20;70.90
51029;DHT22;37054;52.054;8.600;2023-09-19T05:58:26;19.50;70.60
51029;DHT22;37054;52.054;8.600;2023-09-19T06:00:52;19.80;71.00
51029;DHT22;37054;52.054;8.600;2023-09-19T06:03:17;20.20;71.10
51029;DHT22;37054;52.054;8.600;2023-09-19T06:05:44;20.50;70.90
51029;DHT22;37054;52.054;8.600;2023-09-19T06:08:13;20.80;70.80
51029;DHT22;37054;52.054;8.600;2023-09-19T06:10:38;21.10;70.30
51029;DHT22;37054;52.054;8.600;2023-09-19T06:13:04;21.40;70.00
51029;DHT22;37054;52.054;8.600;2023-09-19T06:15:30;21.70;69.70
51029;DHT22;37054;52.054;8.600;2023-09-19T06:17:58;21.90;69.80
51029;DHT22;37054;52.054;8.600;2023-09-19T06:20:27;22.30;70.00
51029;DHT22;37054;52.054;8.600;2023-09-19T06:22:53;22.60;69.80
51029;DHT22;37054;52.054;8.600;2023-09-19T06:25:19;23.00;70.70
51029;DHT22;37054;52.054;8.600;2023-09-19T06:27:45;23.20;69.50
51029;DHT22;37054;52.054;8.600;2023-09-19T06:30:11;23.50;69.30
51029;DHT22;37054;52.054;8.600;2023-09-19T06:32:40;23.70;68.30
51029;DHT22;37054;52.054;8.600;2023-09-19T06:35:09;23.90;68.00
51029;DHT22;37054;52.054;8.600;2023-09-19T06:37:36;24.20;68.30
51029;DHT22;37054;52.054;8.600;2023-09-19T06:40:13;24.40;68.20
51029;DHT22;37054;52.054;8.600;2023-09-19T06:42:40;24.70;68.10
51029;DHT22;37054;52.054;8.600;2023-09-19T06:45:06;24.90;68.20
51029;DHT22;37054;52.054;8.600;2023-09-19T06:47:31;25.30;67.10
51029;DHT22;37054;52.054;8.600;2023-09-19T06:49:57;25.50;68.50
51029;DHT22;37054;52.054;8.600;2023-09-19T06:52:22;25.80;68.20
51029;DHT22;37054;52.054;8.600;2023-09-19T06:54:48;26.00;65.50
51029;DHT22;37054;52.054;8.600;2023-09-19T06:57:16;26.00;66.40
51029;DHT22;37054;52.054;8.600;2023-09-19T06:59:41;25.90;62.40
51029;DHT22;37054;52.054;8.600;2023-09-19T07:02:06;25.70;62.90
51029;DHT22;37054;52.054;8.600;2023-09-19T07:04:33;25.40;64.50
51029;DHT22;37054;52.054;8.600;2023-09-19T07:06:59;25.20;61.60
51029;DHT22;37054;52.054;8.600;2023-09-19T07:09:24;24.80;62.70
51029;DHT22;37054;52.054;8.600;2023-09-19T07:11:52;24.50;62.90
51029;DHT22;37054;52.054;8.600;2023-09-19T07:14:18;24.30;63.60
51029;DHT22;37054;52.054;8.600;2023-09-19T07:16:44;24.10;63.50
51029;DHT22;37054;52.054;8.600;2023-09-19T07:19:10;24.00;63.40
51029;DHT22;37054;52.054;8.600;2023-09-19T07:21:35;23.80;63.00
51029;DHT22;37054;52.054;8.600;2023-09-19T07:24:01;23.60;63.60
51029;DHT22;37054;52.054;8.600;2023-09-19T07:26:30;23.50;62.90
51029;DHT22;37054;52.054;8.600;2023-09-19T07:28:56;23.40;63.50
51029;DHT22;37054;52.054;8.600;2023-09-19T07:31:22;23.40;65.10
51029;DHT22;37054;52.054;8.600;2023-09-19T07:33:48;23.50;64.40
51029;DHT22;37054;52.054;8.600;2023-09-19T07:36:14;23.50;64.10
51029;DHT22;37054;52.054;8.600;2023-09-19T07:38:40;23.70;60.80
51029;DHT22;37054;52.054;8.600;2023-09-19T07:41:06;23.90;61.10
51029;DHT22;37054;52.054;8.600;2023-09-19T07:43:32;24.10;64.40
51029;DHT22;37054;52.054;8.600;2023-09-19T07:46:02;24.40;64.50
51029;DHT22;37054;52.054;8.600;2023-09-19T07:48:27;24.80;62.70
51029;DHT22;37054;52.054;8.600;2023-09-19T07:50:53;25.40;65.90
51029;DHT22;37054;52.054;8.600;2023-09-19T07:53:18;26.10;65.30
51029;DHT22;37054;52.054;8.600;2023-09-19T07:55:44;26.60;62.10
51029;DHT22;37054;52.054;8.600;2023-09-19T07:58:13;26.90;54.00
51029;DHT22;37054;52.054;8.600;2023-09-19T08:00:38;26.90;49.00
51029;DHT22;37054;52.054;8.600;2023-09-19T08:03:04;26.70;50.70
51029;DHT22;37054;52.054;8.600;2023-09-19T08:05:31;26.60;48.90
51029;DHT22;37054;52.054;8.600;2023-09-19T08:07:58;26.60;49.50
51029;DHT22;37054;52.054;8.600;2023-09-19T08:10:24;26.60;51.60
51029;DHT22;37054;52.054;8.600;2023-09-19T08:12:52;26.60;51.40
51029;DHT22;37054;52.054;8.600;2023-09-19T08:15:23;26.70;47.50
51029;DHT22;37054;52.054;8.600;2023-09-19T08:17:49;26.60;47.30
51029;DHT22;37054;52.054;8.600;2023-09-19T08:20:15;26.40;47.40
51029;DHT22;37054;52.054;8.600;2023-09-19T08:22:47;26.30;46.20
51029;DHT22;37054;52.054;8.600;2023-09-19T08:25:13;26.20;47.20
51029;DHT22;37054;52.054;8.600;2023-09-19T08:27:39;26.20;48.00
51029;DHT22;37054;52.054;8.600;2023-09-19T08:30:04;26.30;47.90
51029;DHT22;37054;52.054;8.600;2023-09-19T08:32:31;26.30;45.30
51029;DHT22;37054;52.054;8.600;2023-09-19T08:34:57;26.30;46.40
51029;DHT22;37054;52.054;8.600;2023-09-19T08:37:22;26.30;46.10
51029;DHT22;37054;52.054;8.600;2023-09-19T08:39:47;26.40;44.80
51029;DHT22;37054;52.054;8.600;2023-09-19T08:42:13;26.60;46.20
51029;DHT22;37054;52.054;8.600;2023-09-19T08:44:39;26.70;43.80
51029;DHT22;37054;52.054;8.600;2023-09-19T08:47:08;26.70;43.00
51029;DHT22;37054;52.054;8.600;2023-09-19T08:52:04;26.60;42.80
51029;DHT22;37054;52.054;8.600;2023-09-19T08:54:33;26.70;43.90
51029;DHT22;37054;52.054;8.600;2023-09-19T08:57:00;26.70;42.20
51029;DHT22;37054;52.054;8.600;2023-09-19T08:59:27;26.70;43.30
51029;DHT22;37054;52.054;8.600;2023-09-19T09:01:54;26.60;41.50
51029;DHT22;37054;52.054;8.600;2023-09-19T09:04:20;26.50;42.70
51029;DHT22;37054;52.054;8.600;2023-09-19T09:06:47;26.50;42.70
51029;DHT22;37054;52.054;8.600;2023-09-19T09:09:16;26.60;41.80
51029;DHT22;37054;52.054;8.600;2023-09-19T09:11:42;26.50;41.10
51029;DHT22;37054;52.054;8.600;2023-09-19T09:14:07;26.60;42.60
51029;DHT22;37054;52.054;8.600;2023-09-19T09:16:33;26.70;43.10
51029;DHT22;37054;52.054;8.600;2023-09-19T09:18:59;26.90;43.10
51029;DHT22;37054;52.054;8.600;2023-09-19T09:21:25;27.10;43.10
51029;DHT22;37054;52.054;8.600;2023-09-19T09:23:51;27.20;42.30
51029;DHT22;37054;52.054;8.600;2023-09-19T09:26:17;27.40;43.00
51029;DHT22;37054;52.054;8.600;2023-09-19T09:28:49;27.50;41.40
51029;DHT22;37054;52.054;8.600;2023-09-19T09:31:24;27.60;40.40
51029;DHT22;37054;52.054;8.600;2023-09-19T09:33:53;27.70;40.60
51029;DHT22;37054;52.054;8.600;2023-09-19T09:36:19;27.80;40.60
51029;DHT22;37054;52.054;8.600;2023-09-19T09:38:59;27.80;39.80
51029;DHT22;37054;52.054;8.600;2023-09-19T09:41:35;27.90;39.30
51029;DHT22;37054;52.054;8.600;2023-09-19T09:44:12;27.80;39.00
51029;DHT22;37054;52.054;8.600;2023-09-19T09:46:41;27.80;38.90
51029;DHT22;37054;52.054;8.600;2023-09-19T09:49:22;27.80;39.40
51029;DHT22;37054;52.054;8.600;2023-09-19T09:52:04;27.90;39.10
51029;DHT22;37054;52.054;8.600;2023-09-19T09:55:04;28.00;39.00
51029;DHT22;37054;52.054;8.600;2023-09-19T09:57:33;28.30;38.90
51029;DHT22;37054;52.054;8.600;2023-09-19T09:59:59;28.60;37.90
51029;DHT22;37054;52.054;8.600;2023-09-19T10:02:44;28.80;37.80
51029;DHT22;37054;52.054;8.600;2023-09-19T10:05:12;29.00;38.00
51029;DHT22;37054;52.054;8.600;2023-09-19T10:07:53;29.20;37.10
51029;DHT22;37054;52.054;8.600;2023-09-19T10:10:43;29.40;37.20
51029;DHT22;37054;52.054;8.600;2023-09-19T10:13:09;29.60;36.40
51029;DHT22;37054;52.054;8.600;2023-09-19T10:15:39;29.70;35.50
51029;DHT22;37054;52.054;8.600;2023-09-19T10:18:10;29.70;34.40
51029;DHT22;37054;52.054;8.600;2023-09-19T10:20:36;29.60;35.00
51029;DHT22;37054;52.054;8.600;2023-09-19T10:23:10;29.70;35.80
51029;DHT22;37054;52.054;8.600;2023-09-19T10:25:39;29.80;35.10
51029;DHT22;37054;52.054;8.600;2023-09-19T10:28:11;29.60;34.30
51029;DHT22;37054;52.054;8.600;2023-09-19T10:30:45;29.50;35.70
51029;DHT22;37054;52.054;8.600;2023-09-19T10:33:13;29.50;35.20
51029;DHT22;37054;52.054;8.600;2023-09-19T10:35:39;29.60;34.70
51029;DHT22;37054;52.054;8.600;2023-09-19T10:38:09;29.50;34.90
51029;DHT22;37054;52.054;8.600;2023-09-19T10:40:35;29.40;34.50
51029;DHT22;37054;52.054;8.600;2023-09-19T10:43:03;29.30;33.90
51029;DHT22;37054;52.054;8.600;2023-09-19T10:45:32;29.00;34.20
51029;DHT22;37054;52.054;8.600;2023-09-19T10:47:59;28.80;35.10
51029;DHT22;37054;52.054;8.600;2023-09-19T10:50:25;28.80;34.80
51029;DHT22;37054;52.054;8.600;2023-09-19T10:52:52;28.60;35.50
51029;DHT22;37054;52.054;8.600;2023-09-19T10:55:24;28.60;36.10
51029;DHT22;37054;52.054;8.600;2023-09-19T10:57:50;28.60;36.00
51029;DHT22;37054;52.054;8.600;2023-09-19T11:00:17;28.50;35.30
51029;DHT22;37054;52.054;8.600;2023-09-19T11:06:05;28.40;35.90
51029;DHT22;37054;52.054;8.600;2023-09-19T11:16:39;28.60;35.20
51029;DHT22;37054;52.054;8.600;2023-09-19T11:19:05;28.70;35.50
51029;DHT22;37054;52.054;8.600;2023-09-19T11:26:47;28.80;34.40
51029;DHT22;37054;52.054;8.600;2023-09-19T11:47:46;26.00;38.00
51029;DHT22;37054;52.054;8.600;2023-09-19T11:50:18;29.00;34.00
51029;DHT22;37054;52.054;8.600;2023-09-19T11:52:46;29.20;33.00
51029;DHT22;37054;52.054;8.600;2023-09-19T11:55:12;29.30;33.20
51029;DHT22;37054;52.054;8.600;2023-09-19T11:57:38;29.30;32.60
51029;DHT22;37054;52.054;8.600;2023-09-19T12:00:07;29.20;31.90
51029;DHT22;37054;52.054;8.600;2023-09-19T12:02:47;28.90;32.60
51029;DHT22;37054;52.054;8.600;2023-09-19T12:05:14;29.00;33.50
51029;DHT22;37054;52.054;8.600;2023-09-19T12:07:43;29.10;32.60
51029;DHT22;37054;52.054;8.600;2023-09-19T12:10:13;29.00;32.20
51029;DHT22;37054;52.054;8.600;2023-09-19T12:12:47;28.90;32.50
51029;DHT22;37054;52.054;8.600;2023-09-19T12:15:23;28.80;32.20
51029;DHT22;37054;52.054;8.600;2023-09-19T12:17:54;28.70;32.60
51029;DHT22;37054;52.054;8.600;2023-09-19T12:20:19;28.50;32.90
51029;DHT22;37054;52.054;8.600;2023-09-19T12:22:46;28.50;33.30
51029;DHT22;37054;52.054;8.600;2023-09-19T12:25:15;28.40;33.40
51029;DHT22;37054;52.054;8.600;2023-09-19T12:27:43;28.40;33.60
51029;DHT22;37054;52.054;8.600;2023-09-19T12:30:10;28.40;33.60
51029;DHT22;37054;52.054;8.600;2023-09-19T12:32:40;28.40;33.90
51029;DHT22;37054;52.054;8.600;2023-09-19T12:35:06;28.40;33.80
51029;DHT22;37054;52.054;8.600;2023-09-19T12:37:44;28.50;33.80
51029;DHT22;37054;52.054;8.600;2023-09-19T12:40:18;28.70;33.80
51029;DHT22;37054;52.054;8.600;2023-09-19T12:42:48;28.80;32.50
51029;DHT22;37054;52.054;8.600;2023-09-19T12:45:15;28.70;32.50
51029;DHT22;37054;52.054;8.600;2023-09-19T12:48:17;28.50;32.30
51029;DHT22;37054;52.054;8.600;2023-09-19T12:51:05;28.30;33.00
51029;DHT22;37054;52.054;8.600;2023-09-19T12:56:07;28.30;33.90
51029;DHT22;37054;52.054;8.600;2023-09-19T13:01:22;28.00;32.80
51029;DHT22;37054;52.054;8.600;2023-09-19T13:06:37;27.90;33.00
51029;DHT22;37054;52.054;8.600;2023-09-19T13:09:09;27.90;33.20
51029;DHT22;37054;52.054;8.600;2023-09-19T13:11:39;27.80;33.30
51029;DHT22;37054;52.054;8.600;2023-09-19T13:14:25;27.80;32.90
51029;DHT22;37054;52.054;8.600;2023-09-19T13:19:43;27.80;32.90
51029;DHT22;37054;52.054;8.600;2023-09-19T13:22:37;27.80;32.80
51029;DHT22;37054;52.054;8.600;2023-09-19T13:25:08;27.70;33.00
51029;DHT22;37054;52.054;8.600;2023-09-19T13:27:39;27.60;33.00
51029;DHT22;37054;52.054;8.600;2023-09-19T13:30:05;27.40;33.30
51029;DHT22;37054;52.054;8.600;2023-09-19T13:32:32;27.30;33.60
51029;DHT22;37054;52.054;8.600;2023-09-19T13:34:58;27.50;33.90
51029;DHT22;37054;52.054;8.600;2023-09-19T13:37:24;27.50;33.80
51029;DHT22;37054;52.054;8.600;2023-09-19T13:39:49;27.60;33.80
51029;DHT22;37054;52.054;8.600;2023-09-19T13:42:15;27.60;33.80
51029;DHT22;37054;52.054;8.600;2023-09-19T13:44:41;27.80;33.50
51029;DHT22;37054;52.054;8.600;2023-09-19T13:47:07;27.60;33.60
51029;DHT22;37054;52.054;8.600;2023-09-19T13:49:36;27.50;33.80
51029;DHT22;37054;52.054;8.600;2023-09-19T13:52:02;27.50;33.90
51029;DHT22;37054;52.054;8.600;2023-09-19T13:54:30;27.40;33.90
51029;DHT22;37054;52.054;8.600;2023-09-19T13:56:56;27.30;34.40
51029;DHT22;37054;52.054;8.600;2023-09-19T13:59:22;27.40;33.60
51029;DHT22;37054;52.054;8.600;2023-09-19T14:01:49;27.30;34.00
51029;DHT22;37054;52.054;8.600;2023-09-19T14:04:16;27.30;34.00
51029;DHT22;37054;52.054;8.600;2023-09-19T14:06:42;27.30;33.80
51029;DHT22;37054;52.054;8.600;2023-09-19T14:09:08;27.20;34.00
51029;DHT22;37054;52.054;8.600;2023-09-19T14:11:36;27.20;33.90
51029;DHT22;37054;52.054;8.600;2023-09-19T14:14:02;27.20;34.20
51029;DHT22;37054;52.054;8.600;2023-09-19T14:16:27;27.20;33.60
51029;DHT22;37054;52.054;8.600;2023-09-19T14:18:59;27.10;33.80
51029;DHT22;37054;52.054;8.600;2023-09-19T14:21:25;27.10;34.20
51029;DHT22;37054;52.054;8.600;2023-09-19T14:23:51;27.10;34.30
51029;DHT22;37054;52.054;8.600;2023-09-19T14:26:16;27.00;34.70
51029;DHT22;37054;52.054;8.600;2023-09-19T14:28:43;27.10;35.00
51029;DHT22;37054;52.054;8.600;2023-09-19T14:31:11;27.10;35.10
51029;DHT22;37054;52.054;8.600;2023-09-19T14:33:37;27.20;34.70
51029;DHT22;37054;52.054;8.600;2023-09-19T14:36:04;27.10;34.40
51029;DHT22;37054;52.054;8.600;2023-09-19T14:38:35;27.20;34.80
51029;DHT22;37054;52.054;8.600;2023-09-19T14:41:05;27.20;34.30
51029;DHT22;37054;52.054;8.600;2023-09-19T14:43:31;27.10;34.30
51029;DHT22;37054;52.054;8.600;2023-09-19T14:46:04;27.10;34.60
51029;DHT22;37054;52.054;8.600;2023-09-19T14:48:30;27.00;35.00
51029;DHT22;37054;52.054;8.600;2023-09-19T14:50:57;26.90;35.00
51029;DHT22;37054;52.054;8.600;2023-09-19T14:53:27;26.80;35.40
51029;DHT22;37054;52.054;8.600;2023-09-19T14:55:53;26.70;35.50
51029;DHT22;37054;52.054;8.600;2023-09-19T14:58:20;26.50;35.70
51029;DHT22;37054;52.054;8.600;2023-09-19T15:00:46;26.50;35.80
51029;DHT22;37054;52.054;8.600;2023-09-19T15:03:12;26.40;36.10
51029;DHT22;37054;52.054;8.600;2023-09-19T15:05:39;26.40;36.10
51029;DHT22;37054;52.054;8.600;2023-09-19T15:08:07;26.40;36.50
51029;DHT22;37054;52.054;8.600;2023-09-19T15:10:33;26.50;36.40
51029;DHT22;37054;52.054;8.600;2023-09-19T15:12:59;26.50;35.90
51029;DHT22;37054;52.054;8.600;2023-09-19T15:15:24;26.50;36.00
51029;DHT22;37054;52.054;8.600;2023-09-19T15:17:50;26.40;36.00
51029;DHT22;37054;52.054;8.600;2023-09-19T15:20:16;26.40;36.20
51029;DHT22;37054;52.054;8.600;2023-09-19T15:22:43;26.30;36.30
51029;DHT22;37054;52.054;8.600;2023-09-19T15:25:09;26.30;36.30
51029;DHT22;37054;52.054;8.600;2023-09-19T15:27:35;26.30;36.30
51029;DHT22;37054;52.054;8.600;2023-09-19T15:30:02;26.20;36.40
51029;DHT22;37054;52.054;8.600;2023-09-19T15:32:28;26.20;36.60
51029;DHT22;37054;52.054;8.600;2023-09-19T15:34:54;26.20;36.70
51029;DHT22;37054;52.054;8.600;2023-09-19T15:37:20;26.20;36.90
51029;DHT22;37054;52.054;8.600;2023-09-19T15:39:46;26.20;36.90
51029;DHT22;37054;52.054;8.600;2023-09-19T15:42:12;26.20;36.90
51029;DHT22;37054;52.054;8.600;2023-09-19T15:44:37;26.20;36.40
51029;DHT22;37054;52.054;8.600;2023-09-19T15:47:04;26.10;36.10
51029;DHT22;37054;52.054;8.600;2023-09-19T15:49:30;26.00;36.30
51029;DHT22;37054;52.054;8.600;2023-09-19T15:51:55;26.00;36.30
51029;DHT22;37054;52.054;8.600;2023-09-19T15:54:21;26.00;36.00
51029;DHT22;37054;52.054;8.600;2023-09-19T15:56:47;26.00;35.80
51029;DHT22;37054;52.054;8.600;2023-09-19T15:59:14;25.90;35.90
51029;DHT22;37054;52.054;8.600;2023-09-19T16:01:43;25.90;36.00
51029;DHT22;37054;52.054;8.600;2023-09-19T16:04:12;25.80;36.10
51029;DHT22;37054;52.054;8.600;2023-09-19T16:06:38;25.80;36.10
51029;DHT22;37054;52.054;8.600;2023-09-19T16:09:04;25.80;36.10
51029;DHT22;37054;52.054;8.600;2023-09-19T16:11:34;25.60;36.40
51029;DHT22;37054;52.054;8.600;2023-09-19T16:14:03;25.60;36.30
51029;DHT22;37054;52.054;8.600;2023-09-19T16:16:29;25.50;36.60
51029;DHT22;37054;52.054;8.600;2023-09-19T16:18:58;25.40;36.70
51029;DHT22;37054;52.054;8.600;2023-09-19T16:21:27;25.30;36.90
51029;DHT22;37054;52.054;8.600;2023-09-19T16:23:54;25.30;37.20
51029;DHT22;37054;52.054;8.600;2023-09-19T16:26:21;25.20;37.30
51029;DHT22;37054;52.054;8.600;2023-09-19T16:28:51;25.10;37.40